9TX5 weather

Camp Bullis Als (Cals) Airport
San Antonio, Texas, United States

Public forecast

Using degrees Fahrenheit for public forecast. Weather courtesy of forecast.io.

METAR (pilot weather report)

Closest report is Boerne Stage Field, 8.3 nm (15.4 km) W. Retrieved 2019/07/23 14:35 UTC (4 minutes ago):

K5C1 231435Z AUTO 04007KT 10SM SCT017 BKN027 OVC034 24/21 A3015 RMK AO1

TAF (pilot weather forecast)

Closest forecast is San Antonio International Airport, 13.1 nm (24.3 km) SSE. Retrieved 2019/07/23 12:36 UTC (2 hours ago):

TAF KSAT 231134Z 2312/2418 32005KT P6SM VCSH BKN050 FM231500 02012G22KT P6SM VCSH BKN050 FM231700 03012G22KT P6SM SCT060 FM240200 03005KT P6SM SKC